New Virginia, Iowa
Current Conditions -  °F | °C
As of 6:35 AM on Thursday 23 Oct 2014 (Local Time) from KI75 Reporting Station
Broken Clouds Broken Clouds  
Wind Chill: 52°   Ceiling: 11000
Heat Index: 52°   Visibility: 10mi
Dew Point: 48°   Wind: 7mph
Humidity: 87%   Direction: 170°S
Pressure: 30.04"   Gusts: NA
Location:  41.18°N, 93.73°W
Report Text: KI75 231135Z AUTO 17006KT 10SM SCT070 BKN110 11/09 A3004 RMK AO2 T01110090
Loading
Personal Weather Stations






























Interactive Weather Map
Tropical Storm Tracking
New forecast layout! Learn more

10-Day Weather Forecast

Advertisements
Track Severe Weather on mobile